Time;durP1;ratioP1;P1;durP2;ratioP2;P2;SDS_P1;SDS_P2;PMS_P1;PMS_P2;Temp;Humidity;BMP_temperature;BMP_pressure;BME280_temperature;BME280_humidity;BME280_pressure;Samples;Min_cycle;Max_cycle;Signal;HPM_P1;HPM_P2
2022/05/15 00:00:52;;;;;;;7.60;6.80;;;;;;;21.98;58.08;99413.19;5052540;28;20199;-57
2022/05/15 00:03:21;;;;;;;7.90;7.20;;;;;;;21.96;58.64;99408.03;5052505;28;20192;-57
2022/05/15 00:05:53;;;;;;;7.70;6.90;;;;;;;22.01;58.47;99416.59;5052232;28;20211;-57
2022/05/15 00:08:20;;;;;;;8.57;7.70;;;;;;;22.01;58.42;99416.59;5052452;28;20215;-57
2022/05/15 00:10:49;;;;;;;8.73;7.95;;;;;;;22.04;58.46;99410.38;5051509;28;20464;-57
2022/05/15 00:13:16;;;;;;;7.37;6.80;;;;;;;21.90;58.36;99378.56;5052335;28;20192;-57
2022/05/15 00:15:44;;;;;;;9.07;8.17;;;;;;;22.08;58.42;99414.63;5051760;28;20432;-57
2022/05/15 00:18:11;;;;;;;8.23;7.23;;;;;;;22.04;58.35;99407.78;5052059;28;20227;-57
2022/05/15 00:20:39;;;;;;;10.10;7.53;;;;;;;21.99;58.65;99407.06;5051941;28;20682;-57
2022/05/15 00:23:07;;;;;;;8.80;7.90;;;;;;;21.94;58.71;99412.47;5051780;28;20678;-57
2022/05/15 00:25:34;;;;;;;9.83;7.70;;;;;;;21.94;58.45;99412.47;5051760;28;20203;-57
2022/05/15 00:28:03;;;;;;;7.87;7.27;;;;;;;21.97;58.47;99414.13;5051906;28;20203;-57
2022/05/15 00:30:30;;;;;;;8.00;7.20;;;;;;;21.94;58.55;99416.81;5050715;28;20197;-57
2022/05/15 00:32:57;;;;;;;7.73;7.03;;;;;;;21.96;58.09;99415.88;5051673;28;20197;-57
2022/05/15 00:35:24;;;;;;;8.75;7.80;;;;;;;21.91;58.17;99422.16;5050754;28;20443;-57
2022/05/15 00:37:51;;;;;;;7.97;7.23;;;;;;;21.93;58.11;99415.09;5051262;28;20227;-57
2022/05/15 00:40:21;;;;;;;8.23;7.30;;;;;;;21.90;58.21;99421.28;5051831;28;20193;-57
2022/05/15 00:42:48;;;;;;;8.33;7.63;;;;;;;21.88;58.37;99415.25;5051429;28;20199;-56
2022/05/15 00:45:18;;;;;;;8.47;7.20;;;;;;;21.76;58.80;99410.34;5051384;28;20200;-57
2022/05/15 00:47:45;;;;;;;7.77;7.10;;;;;;;21.79;58.27;99415.50;5051430;28;20196;-57
2022/05/15 00:50:16;;;;;;;7.72;7.00;;;;;;;21.81;57.97;99413.69;5050631;28;20440;-57
2022/05/15 00:52:46;;;;;;;8.90;7.43;;;;;;;21.78;57.85;99414.63;5051539;28;20199;-57
2022/05/15 00:55:15;;;;;;;10.20;7.50;;;;;;;21.80;57.75;99419.84;5051501;28;20275;-57
2022/05/15 00:57:47;;;;;;;7.87;7.10;;;;;;;21.78;57.85;99416.41;5051273;28;20195;-57
2022/05/15 01:00:18;;;;;;;9.95;8.23;;;;;;;21.80;57.79;99416.34;5049836;28;20439;-57
2022/05/15 01:02:52;;;;;;;8.40;7.60;;;;;;;21.87;57.55;99425.75;5051333;28;20200;-57
2022/05/15 01:05:20;;;;;;;7.77;7.13;;;;;;;21.80;57.44;99424.19;5050835;28;20447;-57
2022/05/15 01:07:46;;;;;;;8.00;7.20;;;;;;;21.77;57.48;99422.53;5050978;28;20979;-56
2022/05/15 01:10:14;;;;;;;9.73;7.00;;;;;;;21.74;57.24;99420.88;5051155;28;20188;-57
2022/05/15 01:12:43;;;;;;;7.20;6.50;;;;;;;21.71;57.47;99420.09;5050870;28;20288;-57
2022/05/15 01:15:15;;;;;;;7.32;6.63;;;;;;;21.74;57.23;99414.78;5050758;28;20446;-56
2022/05/15 01:17:43;;;;;;;7.77;6.80;;;;;;;21.72;57.44;99422.69;5050796;28;20192;-57
2022/05/15 01:20:14;;;;;;;8.00;6.50;;;;;;;21.69;57.00;99408.84;5050825;28;20203;-57
2022/05/15 01:22:42;;;;;;;6.90;6.30;;;;;;;21.67;57.12;99414.09;5050830;28;20196;-57
2022/05/15 01:25:15;;;;;;;8.37;6.73;;;;;;;21.75;56.73;99419.13;5050760;28;20196;-57
2022/05/15 01:27:43;;;;;;;7.17;6.43;;;;;;;21.55;56.92;99392.69;5051127;28;20188;-57
2022/05/15 01:30:11;;;;;;;7.22;6.57;;;;;;;21.72;56.83;99411.38;5050109;28;20434;-57
2022/05/15 01:32:38;;;;;;;7.43;6.33;;;;;;;21.69;56.33;99412.31;5050923;28;20188;-57
2022/05/15 01:35:05;;;;;;;7.27;6.30;;;;;;;21.68;56.55;99414.97;5050602;28;20192;-57
2022/05/15 01:37:32;;;;;;;7.05;6.47;;;;;;;21.69;56.25;99417.53;5049294;28;20877;-57
2022/05/15 01:40:02;;;;;;;7.13;6.50;;;;;;;21.75;56.06;99422.56;5050356;28;20243;-57
2022/05/15 01:42:29;;;;;;;6.77;6.13;;;;;;;21.64;56.22;99419.44;5050555;28;20192;-56
2022/05/15 01:44:56;;;;;;;7.13;6.30;;;;;;;21.67;55.98;99418.50;5050816;28;20197;-57
2022/05/15 01:47:23;;;;;;;7.30;6.60;;;;;;;21.60;56.65;99430.03;5050578;28;20189;-57
2022/05/15 01:49:50;;;;;;;7.03;6.43;;;;;;;21.53;56.61;99426.75;5050453;28;20199;-57
2022/05/15 01:52:17;;;;;;;6.83;6.30;;;;;;;21.50;56.66;99425.97;5050324;28;20196;-57
2022/05/15 01:54:44;;;;;;;7.87;6.50;;;;;;;21.41;56.92;99429.69;5050648;28;20192;-57
2022/05/15 01:57:12;;;;;;;8.37;6.37;;;;;;;21.39;56.81;99428.91;5050400;28;20196;-57
2022/05/15 01:59:39;;;;;;;7.10;6.40;;;;;;;21.35;56.91;99431.63;5050325;28;20231;-57
2022/05/15 02:02:06;;;;;;;7.10;6.43;;;;;;;21.33;56.95;99439.53;5049363;28;20435;-57
2022/05/15 02:04:33;;;;;;;7.37;6.70;;;;;;;21.43;56.43;99440.09;5050217;28;20192;-57
2022/05/15 02:07:00;;;;;;;7.00;6.40;;;;;;;21.36;56.33;99441.19;5049674;28;20439;-57
2022/05/15 02:09:27;;;;;;;7.07;6.53;;;;;;;21.37;56.30;99440.31;5050115;28;20195;-57
2022/05/15 02:11:54;;;;;;;7.20;6.50;;;;;;;21.37;56.38;99445.53;5050094;28;20196;-57
2022/05/15 02:14:22;;;;;;;6.90;6.33;;;;;;;21.31;56.61;99448.31;5050296;28;20203;-57
2022/05/15 02:16:49;;;;;;;10.10;6.73;;;;;;;21.30;56.56;99450.06;5049639;28;20818;-57
2022/05/15 02:19:16;;;;;;;8.87;6.50;;;;;;;21.33;56.57;99456.97;5049822;28;20247;-57
2022/05/15 02:21:44;;;;;;;6.77;6.20;;;;;;;21.25;56.69;99454.56;5049859;28;20184;-57
2022/05/15 02:24:11;;;;;;;10.40;6.40;;;;;;;21.27;57.01;99454.50;5048920;28;20446;-57
2022/05/15 02:26:38;;;;;;;7.07;6.40;;;;;;;21.36;56.74;99455.13;5049857;28;20654;-57
2022/05/15 02:29:06;;;;;;;6.87;6.03;;;;;;;21.34;56.79;99449.09;5050116;28;20196;-57
2022/05/15 02:31:34;;;;;;;8.43;6.57;;;;;;;21.35;56.62;99444.69;5049782;28;20191;-57
2022/05/15 02:34:01;;;;;;;7.23;6.53;;;;;;;21.33;56.64;99456.97;5049795;28;20192;-57
2022/05/15 02:36:29;;;;;;;7.07;6.47;;;;;;;21.28;56.78;99454.47;5049984;28;20188;-57
2022/05/15 02:38:56;;;;;;;7.60;6.80;;;;;;;21.25;57.03;99459.78;5049456;28;20228;-57
2022/05/15 02:41:23;;;;;;;6.67;6.07;;;;;;;21.20;57.13;99459.06;5049712;28;20663;-57
2022/05/15 02:43:50;;;;;;;6.60;5.90;;;;;;;21.27;56.80;99454.50;5049847;28;20192;-57
2022/05/15 02:46:17;;;;;;;6.77;6.23;;;;;;;21.18;57.17;99458.22;5049753;28;20667;-57
2022/05/15 02:51:30;;;;;;;9.13;7.07;;;;;;;21.11;57.34;99454.06;5049775;28;20686;-57
2022/05/15 02:53:57;;;;;;;10.03;6.90;;;;;;;21.09;57.41;99466.34;5050692;28;20188;-57
2022/05/15 02:56:28;;;;;;;8.23;6.83;;;;;;;21.01;57.39;99465.66;5053787;28;20539;-57
2022/05/15 02:58:55;;;;;;;8.37;6.90;;;;;;;21.04;57.24;99462.97;5053479;28;20219;-56
2022/05/15 03:01:22;;;;;;;8.07;6.90;;;;;;;21.03;57.26;99469.06;5053817;28;20199;-56
2022/05/15 03:03:51;;;;;;;8.15;7.35;;;;;;;21.07;57.31;99465.50;5052890;28;20450;-57
2022/05/15 03:06:18;;;;;;;7.47;6.80;;;;;;;21.07;57.11;99460.25;5053459;28;20685;-56
2022/05/15 03:08:48;;;;;;;8.10;7.30;;;;;;;21.12;57.42;99472.31;5053506;28;20578;-56
2022/05/15 03:11:15;;;;;;;8.33;7.63;;;;;;;21.03;57.67;99467.31;5053538;28;20552;-57
2022/05/15 03:13:42;;;;;;;8.83;7.10;;;;;;;21.07;57.48;99473.34;5053313;28;20203;-57
2022/05/15 03:16:10;;;;;;;7.33;6.73;;;;;;;21.06;57.59;99476.84;5053199;28;20196;-57
2022/05/15 03:18:40;;;;;;;8.07;7.28;;;;;;;21.06;57.72;99482.91;5053086;28;20739;-57
2022/05/15 03:21:08;;;;;;;8.03;7.33;;;;;;;21.04;57.77;99481.25;5053112;28;20202;-57
2022/05/15 03:23:35;;;;;;;14.43;8.00;;;;;;;20.82;57.75;99454.78;5053208;28;20196;-61
2022/05/15 03:26:02;;;;;;;8.20;7.40;;;;;;;20.98;57.72;99484.00;5052482;28;20810;-61
2022/05/15 03:28:28;;;;;;;8.53;7.30;;;;;;;21.09;57.50;99489.84;5053175;28;20192;-61
2022/05/15 03:30:55;;;;;;;7.70;6.73;;;;;;;21.10;57.12;99491.53;5053098;28;20196;-61
2022/05/15 03:33:22;;;;;;;7.07;6.37;;;;;;;21.13;56.95;99497.56;5053080;28;20199;-61
2022/05/15 03:35:49;;;;;;;7.37;6.67;;;;;;;21.22;56.00;99499.06;5052346;28;20439;-62
2022/05/15 03:38:17;;;;;;;7.00;6.40;;;;;;;21.21;56.00;99486.88;5052906;28;20482;-61
2022/05/15 03:40:44;;;;;;;8.93;6.50;;;;;;;21.30;55.62;99499.72;5052308;28;20454;-61
2022/05/15 03:43:11;;;;;;;7.47;6.77;;;;;;;21.41;55.20;99499.41;5053143;28;20196;-62
2022/05/15 03:45:38;;;;;;;6.90;6.30;;;;;;;21.48;54.50;99493.97;5053061;28;20192;-61
2022/05/15 03:48:06;;;;;;;6.90;6.30;;;;;;;21.55;54.71;99506.00;5052720;28;20189;-61
2022/05/15 03:50:32;;;;;;;7.83;6.53;;;;;;;21.59;53.87;99502.38;5052459;28;20192;-62
2022/05/15 03:52:59;;;;;;;6.00;5.50;;;;;;;21.69;53.59;99501.25;5052431;28;20192;-61
2022/05/15 03:55:27;;;;;;;6.80;6.20;;;;;;;21.67;53.53;99505.63;5052492;28;20192;-61
2022/05/15 03:57:56;;;;;;;7.10;6.47;;;;;;;21.66;53.67;99511.78;5052561;28;20697;-61
2022/05/15 04:00:24;;;;;;;6.70;6.03;;;;;;;21.65;53.80;99502.22;5052483;28;20219;-61
2022/05/15 04:02:51;;;;;;;7.03;6.40;;;;;;;21.66;53.82;99516.16;5052275;28;20686;-62
2022/05/15 04:05:18;;;;;;;9.37;6.17;;;;;;;21.61;53.74;99512.81;5051358;28;20188;-62
2022/05/15 04:07:45;;;;;;;6.70;5.57;;;;;;;21.64;53.94;99513.59;5056960;28;20192;-62
2022/05/15 04:10:14;;;;;;;6.43;5.93;;;;;;;21.65;53.81;99515.28;5072548;28;20226;-61
2022/05/15 04:12:42;;;;;;;7.15;6.35;;;;;;;21.75;53.86;99513.28;5071726;28;20448;-62
2022/05/15 04:15:10;;;;;;;6.47;5.90;;;;;;;21.83;53.94;99508.69;5072196;28;20202;-62
2022/05/15 04:17:41;;;;;;;6.67;6.17;;;;;;;21.84;54.05;99506.94;5072132;28;20196;-62
2022/05/15 04:20:09;;;;;;;8.07;6.07;;;;;;;21.92;54.24;99518.88;5071857;28;20219;-62
2022/05/15 04:22:36;;;;;;;9.77;6.80;;;;;;;21.93;54.50;99518.00;5071436;28;20434;-62
2022/05/15 04:25:03;;;;;;;6.63;6.13;;;;;;;22.01;54.48;99512.53;5072297;28;20442;-62
2022/05/15 04:27:30;;;;;;;7.07;6.40;;;;;;;21.95;54.48;99513.56;5071845;28;20448;-61
2022/05/15 04:29:58;;;;;;;6.77;6.20;;;;;;;21.88;54.38;99511.19;5071852;28;20434;-62
2022/05/15 04:32:25;;;;;;;7.63;6.87;;;;;;;21.92;54.74;99513.66;5071905;28;20214;-61
2022/05/15 04:34:52;;;;;;;6.77;6.13;;;;;;;21.87;54.81;99514.69;5071676;28;20196;-62
2022/05/15 04:37:19;;;;;;;7.15;6.55;;;;;;;21.95;54.68;99520.59;5071353;28;20441;-62
2022/05/15 04:39:46;;;;;;;7.77;6.20;;;;;;;21.99;54.62;99522.19;5071559;28;20232;-62
2022/05/15 04:42:13;;;;;;;6.63;6.13;;;;;;;22.05;53.89;99519.41;5071531;28;20199;-62
2022/05/15 04:44:40;;;;;;;7.13;6.38;;;;;;;22.13;53.68;99517.41;5070488;28;20438;-62
2022/05/15 04:47:08;;;;;;;8.67;6.13;;;;;;;22.29;53.29;99518.66;5071706;28;20187;-63
2022/05/15 04:49:35;;;;;;;7.10;6.40;;;;;;;22.32;52.98;99515.94;5071524;28;20195;-61
2022/05/15 04:52:02;;;;;;;7.57;6.37;;;;;;;22.41;52.84;99523.53;5070981;28;20191;-62
2022/05/15 04:54:29;;;;;;;8.00;6.00;;;;;;;22.37;52.86;99524.50;5071228;28;20261;-64
2022/05/15 04:56:55;;;;;;;10.70;6.10;;;;;;;22.36;52.90;99522.78;5071054;28;20192;-62
2022/05/15 04:59:23;;;;;;;7.82;6.45;;;;;;;22.51;52.66;99518.84;5070811;28;20456;-63
2022/05/15 05:01:50;;;;;;;10.27;6.67;;;;;;;22.62;52.68;99525.47;5071279;28;20187;-62
2022/05/15 05:04:18;;;;;;;6.30;5.70;;;;;;;22.62;52.69;99528.06;5071251;28;20206;-64
2022/05/15 05:06:45;;;;;;;7.60;6.80;;;;;;;22.58;52.68;99531.69;5071321;28;20207;-63
2022/05/15 05:09:12;;;;;;;8.27;7.15;;;;;;;22.62;53.11;99530.69;5069985;28;20472;-62
2022/05/15 05:11:39;;;;;;;9.90;7.33;;;;;;;22.58;52.90;99544.78;5071122;28;20206;-62
2022/05/15 05:14:06;;;;;;;7.20;6.60;;;;;;;22.43;54.31;99541.78;5071155;28;20188;-62
2022/05/15 05:16:33;;;;;;;7.57;6.87;;;;;;;22.44;54.07;99543.53;5070310;28;20662;-62
2022/05/15 05:19:00;;;;;;;12.33;7.57;;;;;;;22.51;53.74;99545.91;5070920;28;20669;-62
2022/05/15 05:21:28;;;;;;;10.67;7.67;;;;;;;22.48;54.14;99538.13;5070937;28;20561;-63
2022/05/15 05:23:55;;;;;;;7.83;7.13;;;;;;;22.40;54.74;99534.03;5070526;28;20191;-63
2022/05/15 05:26:22;;;;;;;7.73;7.07;;;;;;;22.53;54.48;99536.22;5071087;28;20278;-63
2022/05/15 05:28:49;;;;;;;7.87;7.07;;;;;;;22.43;54.32;99511.22;5070523;28;20195;-63
2022/05/15 05:31:17;;;;;;;10.73;7.30;;;;;;;22.63;54.47;99537.69;5070905;28;20188;-62
2022/05/15 05:33:44;;;;;;;8.00;7.20;;;;;;;22.65;54.44;99530.63;5071123;28;20192;-62
2022/05/15 05:36:12;;;;;;;7.63;6.93;;;;;;;22.70;53.90;99535.72;5070887;28;20215;-64
2022/05/15 05:38:40;;;;;;;9.37;6.77;;;;;;;22.78;53.60;99533.69;5070336;28;20227;-62
2022/05/15 05:41:07;;;;;;;9.82;7.57;;;;;;;22.83;52.93;99539.66;5070075;28;20994;-62
2022/05/15 05:43:34;;;;;;;7.23;6.53;;;;;;;22.92;52.82;99541.97;5070746;28;20196;-62
2022/05/15 05:46:01;;;;;;;6.70;6.00;;;;;;;22.95;51.51;99538.38;5070649;28;20203;-62
2022/05/15 05:48:28;;;;;;;6.50;5.53;;;;;;;22.88;50.60;99543.00;5070263;28;20664;-62
2022/05/15 05:50:55;;;;;;;6.97;6.30;;;;;;;23.04;50.07;99541.59;5069508;28;20434;-63
2022/05/15 05:53:21;;;;;;;6.97;6.27;;;;;;;23.16;49.74;99538.53;5070748;28;20195;-62
2022/05/15 05:55:50;;;;;;;5.93;5.53;;;;;;;23.02;50.75;99542.53;5070405;28;20207;-63
2022/05/15 05:58:17;;;;;;;6.47;5.80;;;;;;;23.03;50.38;99545.09;5070126;28;20196;-63
2022/05/15 06:00:43;;;;;;;8.57;6.37;;;;;;;23.06;50.34;99546.75;5069923;28;20222;-63
2022/05/15 06:05:55;;;;;;;6.65;6.00;;;;;;;23.02;50.54;99540.75;5069879;28;20586;-63
2022/05/15 06:08:22;;;;;;;7.33;5.90;;;;;;;23.08;50.38;99537.06;5070367;28;20199;-62
2022/05/15 06:10:51;;;;;;;6.40;5.27;;;;;;;23.01;50.97;99538.19;5069784;28;20731;-62
2022/05/15 06:13:17;;;;;;;6.37;5.77;;;;;;;23.09;49.95;99533.56;5070081;28;20214;-63
2022/05/15 06:15:46;;;;;;;8.10;5.75;;;;;;;23.08;49.73;99537.94;5069066;28;20955;-63
2022/05/15 06:18:13;;;;;;;7.80;5.80;;;;;;;23.15;49.10;99535.97;5069814;28;20551;-62
2022/05/15 06:20:39;;;;;;;8.47;5.67;;;;;;;23.14;49.16;99537.72;5069789;28;20960;-63
2022/05/15 06:23:06;;;;;;;7.03;5.97;;;;;;;23.15;49.78;99541.22;5070131;28;20444;-62
2022/05/15 06:25:33;;;;;;;6.27;5.73;;;;;;;23.19;49.11;99520.06;5069858;28;20199;-58
2022/05/15 06:28:01;;;;;;;6.47;5.70;;;;;;;23.18;48.95;99520.13;5065692;28;20226;-58
2022/05/15 06:30:28;;;;;;;8.48;6.10;;;;;;;23.38;48.92;99536.06;5070838;28;20437;-58
2022/05/15 06:32:55;;;;;;;7.60;5.73;;;;;;;23.46;49.05;99532.25;5070955;28;20195;-59
2022/05/15 06:35:22;;;;;;;7.83;5.90;;;;;;;23.53;48.65;99526.78;5074121;28;20198;-60
2022/05/15 06:37:49;;;;;;;5.93;5.27;;;;;;;23.66;48.50;99536.78;5072839;28;20535;-59
2022/05/15 06:40:18;;;;;;;6.23;5.03;;;;;;;23.78;47.49;99519.75;5074003;28;21001;-59
2022/05/15 06:42:45;;;;;;;6.13;5.10;;;;;;;23.87;47.05;99528.13;5074039;28;20211;-59
2022/05/15 06:45:15;;;;;;;6.03;5.50;;;;;;;23.90;47.33;99528.00;5073829;28;20245;-58
2022/05/15 06:47:42;;;;;;;5.65;5.15;;;;;;;23.96;46.10;99516.44;5073030;28;20469;-57
2022/05/15 06:50:10;;;;;;;4.93;4.43;;;;;;;24.16;46.23;99526.22;5072906;28;20195;-57
2022/05/15 06:52:38;;;;;;;4.77;4.37;;;;;;;24.26;44.99;99527.56;5066774;28;20207;-56
2022/05/15 06:55:07;;;;;;;5.00;4.50;;;;;;;24.19;45.04;99532.22;5072875;28;20195;-56
2022/05/15 06:57:33;;;;;;;6.70;5.40;;;;;;;24.04;45.63;99490.75;5070476;28;20618;-57
2022/05/15 07:00:06;;;;;;;7.53;5.40;;;;;;;24.31;45.94;99520.38;5070282;28;20215;-57
2022/05/15 07:02:35;;;;;;;10.77;5.40;;;;;;;24.37;45.18;99520.13;5069629;28;20864;-57
2022/05/15 07:05:02;;;;;;;5.37;4.80;;;;;;;24.29;45.79;99523.03;5072575;28;20204;-57
2022/05/15 07:07:29;;;;;;;5.23;4.83;;;;;;;24.37;45.03;99525.38;5072552;28;20184;-58
2022/05/15 07:09:56;;;;;;;6.15;4.72;;;;;;;24.49;45.63;99523.13;5071781;28;20495;-58
2022/05/15 07:12:24;;;;;;;5.90;4.60;;;;;;;24.57;43.96;99531.56;5073030;28;20203;-58
2022/05/15 07:14:51;;;;;;;6.50;4.43;;;;;;;24.57;43.11;99528.94;5072445;28;20192;-57
2022/05/15 07:17:18;;;;;;;5.03;4.37;;;;;;;24.62;42.58;99532.22;5072109;28;20187;-57
2022/05/15 07:19:46;;;;;;;6.03;4.60;;;;;;;24.41;42.43;99493.69;5072386;28;20242;-59
2022/05/15 07:22:14;;;;;;;4.57;4.17;;;;;;;24.78;41.77;99531.63;5069771;28;20191;-57
2022/05/15 07:24:41;;;;;;;4.10;3.57;;;;;;;24.72;41.21;99537.13;5072392;28;20192;-57
2022/05/15 07:27:09;;;;;;;3.97;3.67;;;;;;;24.85;40.94;99522.59;5072499;28;20195;-57
2022/05/15 07:29:37;;;;;;;4.20;3.87;;;;;;;24.75;40.98;99526.50;5071805;28;20196;-57
2022/05/15 07:32:04;;;;;;;4.93;4.00;;;;;;;24.86;41.16;99524.31;5072084;28;20192;-57
2022/05/15 07:34:32;;;;;;;4.73;3.70;;;;;;;24.98;40.75;99526.41;5071925;28;20187;-57
2022/05/15 07:37:00;;;;;;;6.13;3.70;;;;;;;25.13;40.57;99531.03;5072296;28;20204;-57
2022/05/15 07:39:27;;;;;;;8.87;3.80;;;;;;;25.16;39.26;99539.63;5071573;28;20250;-57
2022/05/15 07:41:53;;;;;;;8.77;4.32;;;;;;;25.20;39.36;99522.81;5071272;28;20456;-58
2022/05/15 07:44:20;;;;;;;6.07;4.27;;;;;;;25.40;39.27;99526.38;5072000;28;20302;-57
2022/05/15 07:46:47;;;;;;;8.33;3.67;;;;;;;25.52;38.24;99526.69;5071910;28;20199;-58
2022/05/15 07:49:14;;;;;;;6.00;3.83;;;;;;;25.48;37.98;99519.88;5072176;28;20192;-58
2022/05/15 07:51:44;;;;;;;5.38;3.80;;;;;;;25.50;37.62;99525.06;5071368;28;20533;-58
2022/05/15 07:54:13;;;;;;;3.85;3.55;;;;;;;25.65;38.43;99521.78;5072000;28;20192;-58
2022/05/15 07:56:40;;;;;;;4.18;3.53;;;;;;;25.66;37.54;99518.19;5071801;28;20438;-58
2022/05/15 07:59:07;;;;;;;3.93;3.50;;;;;;;25.66;37.85;99523.47;5071907;28;20203;-58
2022/05/15 08:01:35;;;;;;;6.13;3.55;;;;;;;25.71;37.92;99513.59;5071711;28;20219;-58
2022/05/15 08:04:02;;;;;;;6.00;3.45;;;;;;;25.74;37.80;99526.59;5071697;28;20197;-58
2022/05/15 08:09:14;;;;;;;6.70;3.70;;;;;;;25.75;37.85;99523.91;5072034;28;20249;-58
2022/05/15 08:11:41;;;;;;;4.03;3.65;;;;;;;25.78;38.21;99528.19;5071492;28;20176;-58
2022/05/15 08:14:09;;;;;;;4.55;3.65;;;;;;;25.79;37.26;99543.06;5070702;28;20441;-58
2022/05/15 08:16:38;;;;;;;3.45;3.15;;;;;;;25.89;37.14;99539.09;5071605;28;20286;-58
2022/05/15 08:24:36;;;;;;;5.30;3.97;;;;;;;26.00;36.61;99507.84;5071391;28;20195;-58
2022/05/15 08:27:05;;;;;;;4.70;3.50;;;;;;;26.28;36.60;99529.38;5071672;28;20196;-57
2022/05/15 08:29:32;;;;;;;9.07;5.80;;;;;;;26.28;36.49;99529.38;5071027;28;20506;-57
2022/05/15 08:31:59;;;;;;;10.73;6.15;;;;;;;26.39;35.81;99542.06;5071417;28;20207;-56
2022/05/15 08:34:26;;;;;;;9.85;5.65;;;;;;;26.27;35.83;99532.94;5071159;28;20196;-58
2022/05/15 08:36:54;;;;;;;5.18;4.60;;;;;;;26.30;35.52;99532.78;5071217;28;20196;-58
2022/05/15 08:39:21;;;;;;;7.43;4.35;;;;;;;26.37;35.24;99531.56;5071013;28;20231;-57
2022/05/15 08:41:51;;;;;;;7.95;4.20;;;;;;;26.48;35.42;99531.06;5070720;28;20730;-57
2022/05/15 08:44:21;;;;;;;6.90;3.63;;;;;;;26.59;34.40;99539.28;5070787;28;20282;-58
2022/05/15 08:47:06;;;;;;;4.07;3.67;;;;;;;26.58;34.70;99536.75;5069628;28;20503;-57
2022/05/15 08:49:37;;;;;;;3.67;3.38;;;;;;;26.74;34.39;99533.28;5070759;28;20442;-59
2022/05/15 08:52:13;;;;;;;4.90;3.45;;;;;;;26.73;33.79;99539.47;5070237;28;20187;-57
2022/05/15 08:54:45;;;;;;;8.25;3.50;;;;;;;26.72;33.35;99529.88;5070520;28;20187;-57
2022/05/15 08:57:19;;;;;;;3.20;2.90;;;;;;;26.76;32.93;99535.84;5070374;28;20211;-57
2022/05/15 08:59:55;;;;;;;5.70;3.22;;;;;;;26.87;33.21;99534.44;5069268;28;20600;-60
2022/05/15 09:02:23;;;;;;;5.30;3.40;;;;;;;26.92;33.25;99526.28;5067100;28;20421;-57
2022/05/15 09:04:53;;;;;;;5.25;3.45;;;;;;;26.83;33.35;99522.34;5068384;28;20214;-58
2022/05/15 09:07:33;;;;;;;4.32;3.22;;;;;;;26.85;33.29;99520.47;5069412;28;20195;-57
2022/05/15 09:10:11;;;;;;;5.47;3.22;;;;;;;26.82;32.24;99527.66;5069290;28;20588;-57
2022/05/15 09:12:43;;;;;;;3.15;2.85;;;;;;;26.95;31.28;99528.75;5069786;28;20203;-57
2022/05/15 09:15:13;;;;;;;5.72;3.17;;;;;;;27.06;31.61;99529.06;5069762;28;20198;-58
2022/05/15 09:17:47;;;;;;;4.03;3.10;;;;;;;26.91;29.69;99528.09;5069586;28;20456;-57
2022/05/15 09:20:19;;;;;;;3.50;2.92;;;;;;;27.01;30.63;99528.47;5070526;28;20188;-57
2022/05/15 09:22:51;;;;;;;3.80;3.30;;;;;;;27.08;31.56;99519.31;5070008;28;20664;-57
2022/05/15 09:25:20;;;;;;;6.22;3.92;;;;;;;27.13;31.74;99522.56;5070058;28;20666;-57
2022/05/15 09:28:00;;;;;;;6.32;3.35;;;;;;;27.24;31.67;99504.41;5070037;28;20670;-57
2022/05/15 09:30:34;;;;;;;5.15;3.15;;;;;;;27.33;31.95;99506.56;5069806;28;20187;-57
2022/05/15 09:33:01;;;;;;;5.43;2.83;;;;;;;27.26;29.83;99484.06;5070215;28;20456;-58
2022/05/15 09:35:35;;;;;;;8.90;3.38;;;;;;;27.44;29.41;99511.34;5070157;28;20214;-57
2022/05/15 09:43:38;;;;;;;3.75;2.80;;;;;;;27.31;30.43;99502.28;5069856;28;20218;-57
2022/05/15 09:46:14;;;;;;;6.78;3.92;;;;;;;27.47;30.54;99505.88;5069535;28;20192;-57
2022/05/15 09:48:51;;;;;;;3.85;3.30;;;;;;;27.53;30.20;99503.78;5069709;28;20199;-57
2022/05/15 09:51:28;;;;;;;3.15;2.85;;;;;;;27.49;28.50;99489.06;5069308;28;20672;-57
2022/05/15 09:53:57;;;;;;;6.05;3.20;;;;;;;27.58;29.20;99495.59;5069574;28;20268;-58
2022/05/15 09:56:30;;;;;;;5.78;2.75;;;;;;;27.67;29.51;99489.84;5069580;28;20214;-58
2022/05/15 09:59:02;;;;;;;3.25;2.78;;;;;;;27.73;29.18;99492.16;5069379;28;20187;-58
2022/05/15 10:01:36;;;;;;;5.05;2.92;;;;;;;27.78;27.56;99499.81;5068363;28;20441;-58
2022/05/15 10:04:06;;;;;;;4.43;3.47;;;;;;;27.93;27.64;99493.72;5069420;28;20662;-58
2022/05/15 10:06:37;;;;;;;4.05;3.20;;;;;;;28.00;27.69;99498.59;5069168;28;20500;-58
2022/05/15 10:09:16;;;;;;;4.65;2.97;;;;;;;27.93;27.63;99460.25;5069356;28;20192;-56
2022/05/15 10:11:47;;;;;;;4.13;3.65;;;;;;;28.21;28.50;99485.16;5069733;28;20195;-57
2022/05/15 10:14:26;;;;;;;4.50;3.00;;;;;;;28.13;27.06;99492.66;5069249;28;20187;-57
2022/05/15 10:16:56;;;;;;;3.88;2.83;;;;;;;28.10;26.66;99483.94;5068714;28;20475;-57
2022/05/15 10:19:33;;;;;;;4.50;2.53;;;;;;;28.18;26.49;99496.75;5069148;28;20534;-57
2022/05/15 10:22:11;;;;;;;3.67;2.87;;;;;;;28.20;26.52;99483.44;5068635;28;20521;-60
2022/05/15 10:24:43;;;;;;;6.03;2.70;;;;;;;28.31;26.67;99476.63;5069366;28;20680;-57
2022/05/15 10:27:15;;;;;;;5.13;2.80;;;;;;;28.23;26.42;99454.22;5069078;28;20277;-57
2022/05/15 10:29:50;;;;;;;5.35;2.97;;;;;;;28.51;26.00;99478.97;5069091;28;20183;-58
2022/05/15 10:32:23;;;;;;;3.85;3.13;;;;;;;28.55;25.81;99479.66;5068943;28;20939;-58
2022/05/15 10:34:50;;;;;;;2.97;2.58;;;;;;;28.42;25.68;99468.09;5069478;28;20670;-58
2022/05/15 10:37:43;;;;;;;2.88;2.67;;;;;;;28.30;25.55;99468.78;5069293;28;20679;-58
2022/05/15 10:40:20;;;;;;;4.82;2.67;;;;;;;28.40;26.14;99476.13;5067915;28;20430;-58
2022/05/15 10:42:58;;;;;;;4.72;2.70;;;;;;;28.46;25.38;99477.53;5069246;28;20223;-58
2022/05/15 10:45:33;;;;;;;3.58;2.50;;;;;;;28.51;25.07;99473.69;5069267;28;20264;-58
2022/05/15 10:48:14;;;;;;;2.78;2.58;;;;;;;28.53;25.17;99466.53;5069214;28;20661;-58
2022/05/15 10:50:51;;;;;;;4.72;2.40;;;;;;;28.54;24.78;99464.75;5068118;28;20469;-57
2022/05/15 10:59:22;;;;;;;4.53;2.78;;;;;;;28.46;24.60;99457.25;5069176;28;20641;-57
2022/05/15 11:01:57;;;;;;;7.07;2.70;;;;;;;28.35;24.37;99457.00;5068839;28;20697;-58
2022/05/15 11:04:41;;;;;;;5.28;2.83;;;;;;;28.52;25.01;99458.69;5068761;28;20195;-63
2022/05/15 11:07:16;;;;;;;2.67;2.47;;;;;;;28.73;24.83;99457.50;5069072;28;20227;-63
2022/05/15 11:09:55;;;;;;;2.20;2.00;;;;;;;28.57;24.86;99457.47;5069101;28;20198;-63
2022/05/15 11:12:31;;;;;;;2.30;2.10;;;;;;;28.58;24.05;99455.69;5068405;28;20434;-63
2022/05/15 11:15:15;;;;;;;3.70;2.30;;;;;;;28.64;24.70;99453.59;5069550;28;20669;-58
2022/05/15 11:17:52;;;;;;;2.75;2.47;;;;;;;28.66;23.32;99451.69;5072904;28;20192;-57
2022/05/15 11:20:26;;;;;;;3.15;2.50;;;;;;;28.67;23.73;99432.25;5072887;28;20753;-57
2022/05/15 11:22:58;;;;;;;3.97;2.50;;;;;;;28.73;23.64;99451.34;5071430;28;20446;-57
2022/05/15 11:25:29;;;;;;;2.30;2.10;;;;;;;28.54;23.20;99446.25;5072317;28;20192;-57
2022/05/15 11:28:06;;;;;;;2.95;2.40;;;;;;;28.61;23.75;99437.88;5072403;28;20196;-58
2022/05/15 11:30:38;;;;;;;4.75;2.95;;;;;;;28.76;24.15;99437.94;5072315;28;20581;-64
2022/05/15 11:33:09;;;;;;;3.45;2.55;;;;;;;28.91;24.08;99434.38;5072559;28;20332;-57
2022/05/15 11:35:39;;;;;;;2.92;2.60;;;;;;;28.94;24.86;99434.19;5072487;28;20249;-57
2022/05/15 11:38:27;;;;;;;4.80;2.53;;;;;;;29.07;23.86;99437.81;5071826;28;20552;-58
2022/05/15 11:40:55;;;;;;;2.50;2.30;;;;;;;29.20;23.91;99438.75;5064072;28;20189;-57
2022/05/15 11:43:59;;;;;;;2.50;2.30;;;;;;;28.99;23.94;99425.03;5052453;28;20777;-57
2022/05/15 11:47:03;;;;;;;4.60;2.22;;;;;;;28.84;23.24;99423.31;5052151;28;20590;-57
2022/05/15 11:49:37;;;;;;;3.13;2.38;;;;;;;28.83;23.81;99426.03;5010061;28;20193;-58
2022/05/15 11:52:21;;;;;;;3.40;2.60;;;;;;;28.95;24.82;99426.16;5010226;28;20197;-58
2022/05/15 11:54:52;;;;;;;2.75;2.55;;;;;;;29.28;24.33;99420.69;5035304;28;20451;-64
2022/05/15 11:57:40;;;;;;;3.40;2.63;;;;;;;29.43;22.35;99417.06;5061670;28;20191;-62
2022/05/15 12:00:21;;;;;;;4.88;2.70;;;;;;;29.63;22.90;99415.84;5070216;28;20678;-63
2022/05/15 12:02:55;;;;;;;3.00;2.50;;;;;;;29.76;24.15;99411.44;5070058;28;20601;-63
2022/05/15 12:05:31;;;;;;;2.60;2.40;;;;;;;29.80;24.39;99390.00;5069053;28;20263;-63
2022/05/15 12:08:02;;;;;;;3.47;3.05;;;;;;;30.00;24.69;99409.06;5070614;28;20187;-65
2022/05/15 12:10:58;;;;;;;6.00;3.25;;;;;;;30.02;24.94;99393.94;5069979;28;20434;-63